LFSN/ENC METAR and TAF weather

Enter ICAO airport designator
Station Type Date Time Source
LFSN METAR 2019/10/23 08:00 UTC NOAA

LFSN 230800Z AUTO 06008KT 3900 BR OVC004 11/10 Q1015


Station Type Date Time Source
LFSN Decoded METAR 2019/10/23 08:00 UTC NOAA

Nancy / Essey, France (LFSN) 48-41N 006-13E 217M
Oct 23, 2019 - 04:00 AM EDT / 2019.10.23 0800 UTC
Wind: from the ENE (060 degrees) at 9 MPH (8 KT):0
Visibility: 2 mile(s):0
Sky conditions: overcast
Weather: mist
Temperature: 51 F (11 C)
Dew Point: 50 F (10 C)
Relative Humidity: 93%
Pressure (altimeter): 29.97 in. Hg (1015 hPa)
ob: LFSN 230800Z AUTO 06008KT 3900 BR OVC004 11/10 Q1015
cycle: 8

Station Type Date Time Source
LFSN TAF 2012/03/14 16:58 UTC NOAA

TAF LFSN 141600Z 1416/1512 CNL

Example: see airport list